sensor_id;sensor_type;location;lat;lon;timestamp;P1;durP1;ratioP1;P2;durP2;ratioP2
13969;SDS011;7057;49.984;8.404;2024-02-26T00:01:19;2.43;;;2.03;;
13969;SDS011;7057;49.984;8.404;2024-02-26T00:03:46;3.83;;;2.50;;
13969;SDS011;7057;49.984;8.404;2024-02-26T00:06:14;3.07;;;2.30;;
13969;SDS011;7057;49.984;8.404;2024-02-26T00:08:42;4.20;;;2.30;;
13969;SDS011;7057;49.984;8.404;2024-02-26T00:11:10;2.90;;;2.40;;
13969;SDS011;7057;49.984;8.404;2024-02-26T00:13:37;3.33;;;2.40;;
13969;SDS011;7057;49.984;8.404;2024-02-26T00:16:05;2.63;;;1.90;;
13969;SDS011;7057;49.984;8.404;2024-02-26T00:18:33;3.50;;;2.43;;
13969;SDS011;7057;49.984;8.404;2024-02-26T00:21:00;2.40;;;2.20;;
13969;SDS011;7057;49.984;8.404;2024-02-26T00:23:28;2.40;;;2.20;;
13969;SDS011;7057;49.984;8.404;2024-02-26T00:25:57;2.63;;;2.30;;
13969;SDS011;7057;49.984;8.404;2024-02-26T00:28:24;3.20;;;2.07;;
13969;SDS011;7057;49.984;8.404;2024-02-26T00:30:52;3.37;;;2.40;;
13969;SDS011;7057;49.984;8.404;2024-02-26T00:33:21;2.50;;;2.30;;
13969;SDS011;7057;49.984;8.404;2024-02-26T00:35:49;2.53;;;2.13;;
13969;SDS011;7057;49.984;8.404;2024-02-26T00:38:16;2.53;;;2.20;;
13969;SDS011;7057;49.984;8.404;2024-02-26T00:40:43;2.97;;;2.20;;
13969;SDS011;7057;49.984;8.404;2024-02-26T00:43:12;2.53;;;2.23;;
13969;SDS011;7057;49.984;8.404;2024-02-26T00:45:40;2.53;;;2.30;;
13969;SDS011;7057;49.984;8.404;2024-02-26T00:48:07;3.20;;;2.30;;
13969;SDS011;7057;49.984;8.404;2024-02-26T00:50:35;2.33;;;2.13;;
13969;SDS011;7057;49.984;8.404;2024-02-26T00:53:02;3.03;;;2.10;;
13969;SDS011;7057;49.984;8.404;2024-02-26T00:55:30;4.10;;;2.20;;
13969;SDS011;7057;49.984;8.404;2024-02-26T00:57:57;2.10;;;1.90;;
13969;SDS011;7057;49.984;8.404;2024-02-26T01:00:26;3.80;;;2.07;;
13969;SDS011;7057;49.984;8.404;2024-02-26T01:02:53;3.13;;;2.10;;
13969;SDS011;7057;49.984;8.404;2024-02-26T01:05:22;2.77;;;2.30;;
13969;SDS011;7057;49.984;8.404;2024-02-26T01:07:49;3.43;;;2.40;;
13969;SDS011;7057;49.984;8.404;2024-02-26T01:10:17;3.00;;;2.00;;
13969;SDS011;7057;49.984;8.404;2024-02-26T01:12:44;2.60;;;2.17;;
13969;SDS011;7057;49.984;8.404;2024-02-26T01:15:13;5.10;;;2.23;;
13969;SDS011;7057;49.984;8.404;2024-02-26T01:17:41;4.13;;;2.17;;
13969;SDS011;7057;49.984;8.404;2024-02-26T01:20:09;2.90;;;2.07;;
13969;SDS011;7057;49.984;8.404;2024-02-26T01:22:37;2.87;;;2.07;;
13969;SDS011;7057;49.984;8.404;2024-02-26T01:25:06;2.87;;;1.80;;
13969;SDS011;7057;49.984;8.404;2024-02-26T01:27:34;3.73;;;2.20;;
13969;SDS011;7057;49.984;8.404;2024-02-26T01:30:02;2.63;;;2.17;;
13969;SDS011;7057;49.984;8.404;2024-02-26T01:32:30;2.33;;;1.97;;
13969;SDS011;7057;49.984;8.404;2024-02-26T01:34:59;5.10;;;2.17;;
13969;SDS011;7057;49.984;8.404;2024-02-26T01:37:27;2.93;;;2.20;;
13969;SDS011;7057;49.984;8.404;2024-02-26T01:39:55;4.07;;;2.47;;
13969;SDS011;7057;49.984;8.404;2024-02-26T01:42:22;3.03;;;2.37;;
13969;SDS011;7057;49.984;8.404;2024-02-26T01:44:50;3.03;;;1.90;;
13969;SDS011;7057;49.984;8.404;2024-02-26T01:47:17;2.53;;;2.23;;
13969;SDS011;7057;49.984;8.404;2024-02-26T01:49:45;3.47;;;2.47;;
13969;SDS011;7057;49.984;8.404;2024-02-26T01:52:14;3.23;;;2.33;;
13969;SDS011;7057;49.984;8.404;2024-02-26T01:54:42;3.07;;;2.23;;
13969;SDS011;7057;49.984;8.404;2024-02-26T01:57:09;4.43;;;2.30;;
13969;SDS011;7057;49.984;8.404;2024-02-26T01:59:37;3.20;;;2.30;;
13969;SDS011;7057;49.984;8.404;2024-02-26T02:02:06;3.17;;;2.33;;
13969;SDS011;7057;49.984;8.404;2024-02-26T02:04:35;2.70;;;2.20;;
13969;SDS011;7057;49.984;8.404;2024-02-26T02:07:03;3.53;;;2.30;;
13969;SDS011;7057;49.984;8.404;2024-02-26T02:09:33;2.70;;;2.27;;
13969;SDS011;7057;49.984;8.404;2024-02-26T02:12:00;4.23;;;2.93;;
13969;SDS011;7057;49.984;8.404;2024-02-26T02:14:28;3.83;;;2.40;;
13969;SDS011;7057;49.984;8.404;2024-02-26T02:16:55;3.70;;;2.50;;
13969;SDS011;7057;49.984;8.404;2024-02-26T02:19:23;3.53;;;2.63;;
13969;SDS011;7057;49.984;8.404;2024-02-26T02:21:52;4.70;;;2.50;;
13969;SDS011;7057;49.984;8.404;2024-02-26T02:24:19;3.23;;;2.33;;
13969;SDS011;7057;49.984;8.404;2024-02-26T02:26:47;2.37;;;2.17;;
13969;SDS011;7057;49.984;8.404;2024-02-26T02:29:14;3.90;;;2.40;;
13969;SDS011;7057;49.984;8.404;2024-02-26T02:31:42;2.40;;;2.20;;
13969;SDS011;7057;49.984;8.404;2024-02-26T02:34:09;2.93;;;2.30;;
13969;SDS011;7057;49.984;8.404;2024-02-26T02:36:47;2.97;;;2.30;;
13969;SDS011;7057;49.984;8.404;2024-02-26T02:39:16;3.00;;;2.63;;
13969;SDS011;7057;49.984;8.404;2024-02-26T02:41:44;2.83;;;2.30;;
13969;SDS011;7057;49.984;8.404;2024-02-26T02:44:11;3.00;;;2.27;;
13969;SDS011;7057;49.984;8.404;2024-02-26T02:46:39;2.43;;;2.23;;
13969;SDS011;7057;49.984;8.404;2024-02-26T02:49:08;2.73;;;2.33;;
13969;SDS011;7057;49.984;8.404;2024-02-26T02:51:36;3.20;;;2.40;;
13969;SDS011;7057;49.984;8.404;2024-02-26T02:54:03;2.97;;;2.17;;
13969;SDS011;7057;49.984;8.404;2024-02-26T02:56:32;2.90;;;2.40;;
13969;SDS011;7057;49.984;8.404;2024-02-26T02:58:59;2.50;;;2.20;;
13969;SDS011;7057;49.984;8.404;2024-02-26T03:01:27;2.60;;;2.00;;
13969;SDS011;7057;49.984;8.404;2024-02-26T03:03:54;2.30;;;2.10;;
13969;SDS011;7057;49.984;8.404;2024-02-26T03:06:22;2.83;;;2.30;;
13969;SDS011;7057;49.984;8.404;2024-02-26T03:08:52;2.50;;;2.30;;
13969;SDS011;7057;49.984;8.404;2024-02-26T03:11:19;2.83;;;2.27;;
13969;SDS011;7057;49.984;8.404;2024-02-26T03:13:48;2.80;;;2.50;;
13969;SDS011;7057;49.984;8.404;2024-02-26T03:16:16;2.43;;;2.10;;
13969;SDS011;7057;49.984;8.404;2024-02-26T03:18:44;4.50;;;2.40;;
13969;SDS011;7057;49.984;8.404;2024-02-26T03:21:11;3.87;;;2.67;;
13969;SDS011;7057;49.984;8.404;2024-02-26T03:23:39;3.43;;;2.23;;
13969;SDS011;7057;49.984;8.404;2024-02-26T03:26:06;2.60;;;2.40;;
13969;SDS011;7057;49.984;8.404;2024-02-26T03:28:34;3.90;;;2.30;;
13969;SDS011;7057;49.984;8.404;2024-02-26T03:31:03;3.83;;;2.53;;
13969;SDS011;7057;49.984;8.404;2024-02-26T03:33:30;3.67;;;2.70;;
13969;SDS011;7057;49.984;8.404;2024-02-26T03:35:58;2.63;;;2.30;;
13969;SDS011;7057;49.984;8.404;2024-02-26T03:38:25;3.00;;;2.70;;
13969;SDS011;7057;49.984;8.404;2024-02-26T03:40:53;3.83;;;2.60;;
13969;SDS011;7057;49.984;8.404;2024-02-26T03:43:20;3.43;;;2.60;;
13969;SDS011;7057;49.984;8.404;2024-02-26T03:45:47;2.93;;;2.63;;
13969;SDS011;7057;49.984;8.404;2024-02-26T03:48:16;2.60;;;2.30;;
13969;SDS011;7057;49.984;8.404;2024-02-26T03:50:44;3.50;;;2.50;;
13969;SDS011;7057;49.984;8.404;2024-02-26T03:53:11;3.60;;;2.70;;
13969;SDS011;7057;49.984;8.404;2024-02-26T03:55:39;4.47;;;3.10;;
13969;SDS011;7057;49.984;8.404;2024-02-26T03:58:07;3.93;;;2.67;;
13969;SDS011;7057;49.984;8.404;2024-02-26T04:00:34;3.57;;;3.07;;
13969;SDS011;7057;49.984;8.404;2024-02-26T04:03:02;3.03;;;2.73;;
13969;SDS011;7057;49.984;8.404;2024-02-26T04:05:31;2.90;;;2.60;;
13969;SDS011;7057;49.984;8.404;2024-02-26T04:07:58;3.43;;;3.13;;
13969;SDS011;7057;49.984;8.404;2024-02-26T04:10:26;3.50;;;2.70;;
13969;SDS011;7057;49.984;8.404;2024-02-26T04:12:53;4.13;;;2.80;;
13969;SDS011;7057;49.984;8.404;2024-02-26T04:15:21;4.00;;;3.00;;
13969;SDS011;7057;49.984;8.404;2024-02-26T04:17:48;3.50;;;3.20;;
13969;SDS011;7057;49.984;8.404;2024-02-26T04:20:16;3.40;;;2.90;;
13969;SDS011;7057;49.984;8.404;2024-02-26T04:22:44;3.87;;;3.23;;
13969;SDS011;7057;49.984;8.404;2024-02-26T04:25:12;3.20;;;2.90;;
13969;SDS011;7057;49.984;8.404;2024-02-26T04:27:40;4.83;;;3.40;;
13969;SDS011;7057;49.984;8.404;2024-02-26T04:30:08;3.80;;;3.00;;
13969;SDS011;7057;49.984;8.404;2024-02-26T04:32:35;6.00;;;3.30;;
13969;SDS011;7057;49.984;8.404;2024-02-26T04:35:03;3.77;;;3.33;;
13969;SDS011;7057;49.984;8.404;2024-02-26T04:37:30;5.50;;;3.50;;
13969;SDS011;7057;49.984;8.404;2024-02-26T04:39:59;3.93;;;3.43;;
13969;SDS011;7057;49.984;8.404;2024-02-26T04:42:28;4.53;;;3.60;;
13969;SDS011;7057;49.984;8.404;2024-02-26T04:44:55;3.97;;;3.50;;
13969;SDS011;7057;49.984;8.404;2024-02-26T04:47:22;3.43;;;3.13;;
13969;SDS011;7057;49.984;8.404;2024-02-26T04:49:50;5.03;;;3.33;;
13969;SDS011;7057;49.984;8.404;2024-02-26T04:52:18;4.97;;;3.70;;
13969;SDS011;7057;49.984;8.404;2024-02-26T04:54:45;4.37;;;3.40;;
13969;SDS011;7057;49.984;8.404;2024-02-26T04:57:14;4.00;;;3.60;;
13969;SDS011;7057;49.984;8.404;2024-02-26T04:59:43;3.90;;;3.50;;
13969;SDS011;7057;49.984;8.404;2024-02-26T05:02:11;7.03;;;3.80;;
13969;SDS011;7057;49.984;8.404;2024-02-26T05:04:38;5.00;;;4.00;;
13969;SDS011;7057;49.984;8.404;2024-02-26T05:07:06;5.90;;;4.17;;
13969;SDS011;7057;49.984;8.404;2024-02-26T05:09:34;4.03;;;3.63;;
13969;SDS011;7057;49.984;8.404;2024-02-26T05:12:02;4.87;;;3.90;;
13969;SDS011;7057;49.984;8.404;2024-02-26T05:14:31;4.33;;;3.87;;
13969;SDS011;7057;49.984;8.404;2024-02-26T05:16:58;4.73;;;4.23;;
13969;SDS011;7057;49.984;8.404;2024-02-26T05:19:25;4.77;;;4.27;;
13969;SDS011;7057;49.984;8.404;2024-02-26T05:21:53;4.50;;;4.10;;
13969;SDS011;7057;49.984;8.404;2024-02-26T05:24:20;5.83;;;4.53;;
13969;SDS011;7057;49.984;8.404;2024-02-26T05:26:48;6.43;;;3.87;;
13969;SDS011;7057;49.984;8.404;2024-02-26T05:29:15;6.37;;;4.50;;
13969;SDS011;7057;49.984;8.404;2024-02-26T05:31:44;5.97;;;4.40;;
13969;SDS011;7057;49.984;8.404;2024-02-26T05:34:12;7.30;;;4.50;;
13969;SDS011;7057;49.984;8.404;2024-02-26T05:36:39;6.60;;;4.33;;
13969;SDS011;7057;49.984;8.404;2024-02-26T05:39:07;5.50;;;3.97;;
13969;SDS011;7057;49.984;8.404;2024-02-26T05:41:37;7.50;;;4.20;;
13969;SDS011;7057;49.984;8.404;2024-02-26T05:44:04;9.47;;;4.30;;
13969;SDS011;7057;49.984;8.404;2024-02-26T05:46:35;5.87;;;4.30;;
13969;SDS011;7057;49.984;8.404;2024-02-26T05:49:03;8.67;;;4.87;;
13969;SDS011;7057;49.984;8.404;2024-02-26T05:51:32;9.90;;;4.80;;
13969;SDS011;7057;49.984;8.404;2024-02-26T05:54:00;4.37;;;3.97;;
13969;SDS011;7057;49.984;8.404;2024-02-26T05:56:27;5.10;;;4.40;;
13969;SDS011;7057;49.984;8.404;2024-02-26T05:58:55;6.00;;;3.97;;
13969;SDS011;7057;49.984;8.404;2024-02-26T06:01:22;6.47;;;4.20;;
13969;SDS011;7057;49.984;8.404;2024-02-26T06:03:51;8.53;;;5.17;;
13969;SDS011;7057;49.984;8.404;2024-02-26T06:06:20;7.57;;;4.60;;
13969;SDS011;7057;49.984;8.404;2024-02-26T06:08:48;7.57;;;4.60;;
13969;SDS011;7057;49.984;8.404;2024-02-26T06:11:16;7.10;;;5.13;;
13969;SDS011;7057;49.984;8.404;2024-02-26T06:13:43;7.13;;;5.47;;
13969;SDS011;7057;49.984;8.404;2024-02-26T06:16:11;6.20;;;5.10;;
13969;SDS011;7057;49.984;8.404;2024-02-26T06:18:38;5.40;;;4.90;;
13969;SDS011;7057;49.984;8.404;2024-02-26T06:21:08;5.63;;;4.90;;
13969;SDS011;7057;49.984;8.404;2024-02-26T06:23:38;6.27;;;4.77;;
13969;SDS011;7057;49.984;8.404;2024-02-26T06:26:05;6.00;;;4.80;;
13969;SDS011;7057;49.984;8.404;2024-02-26T06:28:33;5.97;;;4.37;;
13969;SDS011;7057;49.984;8.404;2024-02-26T06:31:01;7.80;;;5.20;;
13969;SDS011;7057;49.984;8.404;2024-02-26T06:33:28;5.33;;;4.83;;
13969;SDS011;7057;49.984;8.404;2024-02-26T06:35:56;8.53;;;5.60;;
13969;SDS011;7057;49.984;8.404;2024-02-26T06:38:23;6.50;;;5.53;;
13969;SDS011;7057;49.984;8.404;2024-02-26T06:40:52;8.13;;;5.60;;
13969;SDS011;7057;49.984;8.404;2024-02-26T06:43:20;8.00;;;5.67;;
13969;SDS011;7057;49.984;8.404;2024-02-26T06:45:47;8.93;;;5.93;;
13969;SDS011;7057;49.984;8.404;2024-02-26T06:48:15;7.07;;;6.10;;
13969;SDS011;7057;49.984;8.404;2024-02-26T06:50:42;8.20;;;6.20;;
13969;SDS011;7057;49.984;8.404;2024-02-26T06:53:10;9.13;;;6.63;;
13969;SDS011;7057;49.984;8.404;2024-02-26T06:55:37;8.00;;;6.47;;
13969;SDS011;7057;49.984;8.404;2024-02-26T06:58:07;10.53;;;7.10;;
13969;SDS011;7057;49.984;8.404;2024-02-26T07:00:35;7.97;;;6.70;;
13969;SDS011;7057;49.984;8.404;2024-02-26T07:03:03;11.07;;;6.50;;
13969;SDS011;7057;49.984;8.404;2024-02-26T07:05:30;7.67;;;6.20;;
13969;SDS011;7057;49.984;8.404;2024-02-26T07:07:58;9.73;;;7.17;;
13969;SDS011;7057;49.984;8.404;2024-02-26T07:10:25;8.40;;;6.97;;
13969;SDS011;7057;49.984;8.404;2024-02-26T07:12:53;8.33;;;6.43;;
13969;SDS011;7057;49.984;8.404;2024-02-26T07:15:22;8.97;;;7.13;;
13969;SDS011;7057;49.984;8.404;2024-02-26T07:17:49;9.13;;;6.87;;
13969;SDS011;7057;49.984;8.404;2024-02-26T07:20:17;8.23;;;6.50;;
13969;SDS011;7057;49.984;8.404;2024-02-26T07:22:44;12.00;;;7.10;;
13969;SDS011;7057;49.984;8.404;2024-02-26T07:25:12;13.70;;;7.00;;
13969;SDS011;7057;49.984;8.404;2024-02-26T07:27:39;8.80;;;7.80;;
13969;SDS011;7057;49.984;8.404;2024-02-26T07:30:07;9.30;;;6.83;;
13969;SDS011;7057;49.984;8.404;2024-02-26T07:32:36;7.53;;;6.63;;
13969;SDS011;7057;49.984;8.404;2024-02-26T07:35:04;8.63;;;6.20;;
13969;SDS011;7057;49.984;8.404;2024-02-26T07:37:31;10.60;;;7.50;;
13969;SDS011;7057;49.984;8.404;2024-02-26T07:39:59;9.73;;;6.73;;
13969;SDS011;7057;49.984;8.404;2024-02-26T07:42:26;9.93;;;7.80;;
13969;SDS011;7057;49.984;8.404;2024-02-26T07:44:54;11.60;;;7.53;;
13969;SDS011;7057;49.984;8.404;2024-02-26T07:47:21;12.63;;;7.57;;
13969;SDS011;7057;49.984;8.404;2024-02-26T07:49:50;8.90;;;6.57;;
13969;SDS011;7057;49.984;8.404;2024-02-26T07:52:17;7.83;;;6.23;;
13969;SDS011;7057;49.984;8.404;2024-02-26T07:54:45;9.73;;;7.43;;
13969;SDS011;7057;49.984;8.404;2024-02-26T07:57:12;10.10;;;7.00;;
13969;SDS011;7057;49.984;8.404;2024-02-26T07:59:42;8.50;;;6.90;;
13969;SDS011;7057;49.984;8.404;2024-02-26T08:02:15;9.23;;;7.10;;
13969;SDS011;7057;49.984;8.404;2024-02-26T08:04:42;10.37;;;7.07;;
13969;SDS011;7057;49.984;8.404;2024-02-26T08:07:11;9.40;;;7.30;;
13969;SDS011;7057;49.984;8.404;2024-02-26T08:09:40;9.23;;;7.10;;
13969;SDS011;7057;49.984;8.404;2024-02-26T08:12:08;11.73;;;7.47;;
13969;SDS011;7057;49.984;8.404;2024-02-26T08:14:35;10.17;;;6.63;;
13969;SDS011;7057;49.984;8.404;2024-02-26T08:17:03;9.53;;;7.40;;
13969;SDS011;7057;49.984;8.404;2024-02-26T08:19:30;8.43;;;6.43;;
13969;SDS011;7057;49.984;8.404;2024-02-26T08:21:58;9.63;;;7.13;;
13969;SDS011;7057;49.984;8.404;2024-02-26T08:24:27;8.80;;;6.70;;
13969;SDS011;7057;49.984;8.404;2024-02-26T08:26:54;9.57;;;7.10;;
13969;SDS011;7057;49.984;8.404;2024-02-26T08:29:21;7.90;;;6.57;;
13969;SDS011;7057;49.984;8.404;2024-02-26T08:31:49;7.30;;;6.50;;
13969;SDS011;7057;49.984;8.404;2024-02-26T08:34:16;10.63;;;7.17;;
13969;SDS011;7057;49.984;8.404;2024-02-26T08:36:44;8.20;;;7.37;;
13969;SDS011;7057;49.984;8.404;2024-02-26T08:39:11;10.67;;;7.57;;
13969;SDS011;7057;49.984;8.404;2024-02-26T08:41:41;10.10;;;7.73;;
13969;SDS011;7057;49.984;8.404;2024-02-26T08:44:08;11.60;;;6.97;;
13969;SDS011;7057;49.984;8.404;2024-02-26T08:46:36;10.73;;;6.87;;
13969;SDS011;7057;49.984;8.404;2024-02-26T08:49:03;9.90;;;6.90;;
13969;SDS011;7057;49.984;8.404;2024-02-26T08:51:31;9.50;;;6.87;;
13969;SDS011;7057;49.984;8.404;2024-02-26T08:53:58;10.50;;;7.80;;
13969;SDS011;7057;49.984;8.404;2024-02-26T08:56:26;10.17;;;7.53;;
13969;SDS011;7057;49.984;8.404;2024-02-26T08:58:55;10.00;;;7.03;;
13969;SDS011;7057;49.984;8.404;2024-02-26T09:01:24;11.00;;;7.70;;
13969;SDS011;7057;49.984;8.404;2024-02-26T09:03:52;8.93;;;7.67;;
13969;SDS011;7057;49.984;8.404;2024-02-26T09:06:19;10.10;;;7.80;;
13969;SDS011;7057;49.984;8.404;2024-02-26T09:08:47;9.13;;;7.40;;
13969;SDS011;7057;49.984;8.404;2024-02-26T09:11:14;8.37;;;7.27;;
13969;SDS011;7057;49.984;8.404;2024-02-26T09:13:41;11.10;;;7.83;;
13969;SDS011;7057;49.984;8.404;2024-02-26T09:16:11;10.00;;;8.03;;
13969;SDS011;7057;49.984;8.404;2024-02-26T09:18:39;11.43;;;8.40;;
13969;SDS011;7057;49.984;8.404;2024-02-26T09:21:06;9.33;;;7.07;;
13969;SDS011;7057;49.984;8.404;2024-02-26T09:23:34;10.87;;;6.97;;
13969;SDS011;7057;49.984;8.404;2024-02-26T09:26:02;12.23;;;8.40;;
13969;SDS011;7057;49.984;8.404;2024-02-26T09:28:30;9.67;;;7.93;;
13969;SDS011;7057;49.984;8.404;2024-02-26T09:31:03;10.67;;;8.30;;
13969;SDS011;7057;49.984;8.404;2024-02-26T09:33:32;8.97;;;6.73;;
13969;SDS011;7057;49.984;8.404;2024-02-26T09:36:00;10.30;;;8.53;;
13969;SDS011;7057;49.984;8.404;2024-02-26T09:38:27;11.17;;;8.47;;
13969;SDS011;7057;49.984;8.404;2024-02-26T09:40:56;12.47;;;7.80;;
13969;SDS011;7057;49.984;8.404;2024-02-26T09:43:24;11.77;;;8.10;;
13969;SDS011;7057;49.984;8.404;2024-02-26T09:45:54;11.87;;;7.67;;
13969;SDS011;7057;49.984;8.404;2024-02-26T09:48:21;9.27;;;7.37;;
13969;SDS011;7057;49.984;8.404;2024-02-26T09:50:50;11.17;;;8.00;;
13969;SDS011;7057;49.984;8.404;2024-02-26T09:53:18;8.63;;;7.33;;
13969;SDS011;7057;49.984;8.404;2024-02-26T09:55:49;10.20;;;7.63;;
13969;SDS011;7057;49.984;8.404;2024-02-26T09:58:16;12.17;;;8.37;;
13969;SDS011;7057;49.984;8.404;2024-02-26T10:00:46;11.27;;;8.40;;
13969;SDS011;7057;49.984;8.404;2024-02-26T10:03:14;12.03;;;7.87;;
13969;SDS011;7057;49.984;8.404;2024-02-26T10:05:42;13.27;;;8.33;;
13969;SDS011;7057;49.984;8.404;2024-02-26T10:08:12;9.90;;;7.40;;
13969;SDS011;7057;49.984;8.404;2024-02-26T10:10:39;12.17;;;8.30;;
13969;SDS011;7057;49.984;8.404;2024-02-26T10:13:07;10.73;;;7.43;;
13969;SDS011;7057;49.984;8.404;2024-02-26T10:15:37;13.03;;;8.87;;
13969;SDS011;7057;49.984;8.404;2024-02-26T10:18:04;11.57;;;8.00;;
13969;SDS011;7057;49.984;8.404;2024-02-26T10:20:32;8.50;;;6.63;;
13969;SDS011;7057;49.984;8.404;2024-02-26T10:23:02;9.10;;;6.90;;
13969;SDS011;7057;49.984;8.404;2024-02-26T10:25:31;12.77;;;8.63;;
13969;SDS011;7057;49.984;8.404;2024-02-26T10:27:59;11.43;;;7.93;;
13969;SDS011;7057;49.984;8.404;2024-02-26T10:30:28;11.47;;;8.30;;
13969;SDS011;7057;49.984;8.404;2024-02-26T10:32:56;9.80;;;7.43;;
13969;SDS011;7057;49.984;8.404;2024-02-26T10:35:24;10.93;;;7.80;;
13969;SDS011;7057;49.984;8.404;2024-02-26T10:37:52;13.00;;;8.87;;
13969;SDS011;7057;49.984;8.404;2024-02-26T10:40:19;9.27;;;8.00;;
13969;SDS011;7057;49.984;8.404;2024-02-26T10:42:48;14.37;;;8.40;;
13969;SDS011;7057;49.984;8.404;2024-02-26T10:45:15;11.83;;;7.77;;
13969;SDS011;7057;49.984;8.404;2024-02-26T10:47:44;9.70;;;8.13;;
13969;SDS011;7057;49.984;8.404;2024-02-26T10:50:12;10.43;;;7.67;;
13969;SDS011;7057;49.984;8.404;2024-02-26T10:52:40;10.43;;;7.77;;
13969;SDS011;7057;49.984;8.404;2024-02-26T10:55:10;8.80;;;7.30;;
13969;SDS011;7057;49.984;8.404;2024-02-26T10:57:40;8.40;;;7.03;;
13969;SDS011;7057;49.984;8.404;2024-02-26T11:00:13;9.20;;;6.83;;
13969;SDS011;7057;49.984;8.404;2024-02-26T11:02:41;10.10;;;7.07;;
13969;SDS011;7057;49.984;8.404;2024-02-26T11:05:09;10.93;;;8.00;;
13969;SDS011;7057;49.984;8.404;2024-02-26T11:07:38;7.73;;;6.17;;
13969;SDS011;7057;49.984;8.404;2024-02-26T11:10:06;8.60;;;7.47;;
13969;SDS011;7057;49.984;8.404;2024-02-26T11:12:34;10.60;;;6.93;;
13969;SDS011;7057;49.984;8.404;2024-02-26T11:15:03;7.67;;;6.20;;
13969;SDS011;7057;49.984;8.404;2024-02-26T11:17:31;13.00;;;8.57;;
13969;SDS011;7057;49.984;8.404;2024-02-26T11:20:00;10.57;;;8.20;;
13969;SDS011;7057;49.984;8.404;2024-02-26T11:22:28;8.37;;;7.53;;
13969;SDS011;7057;49.984;8.404;2024-02-26T11:24:56;8.93;;;8.03;;
13969;SDS011;7057;49.984;8.404;2024-02-26T11:27:26;6.60;;;5.03;;
13969;SDS011;7057;49.984;8.404;2024-02-26T11:29:56;11.40;;;8.30;;
13969;SDS011;7057;49.984;8.404;2024-02-26T11:32:25;9.27;;;7.27;;
13969;SDS011;7057;49.984;8.404;2024-02-26T11:34:57;9.67;;;8.07;;
13969;SDS011;7057;49.984;8.404;2024-02-26T11:37:25;8.67;;;7.40;;
13969;SDS011;7057;49.984;8.404;2024-02-26T11:39:52;9.73;;;8.23;;
13969;SDS011;7057;49.984;8.404;2024-02-26T11:42:22;8.50;;;7.60;;
13969;SDS011;7057;49.984;8.404;2024-02-26T11:44:50;8.50;;;6.93;;
13969;SDS011;7057;49.984;8.404;2024-02-26T11:47:18;10.17;;;5.90;;
13969;SDS011;7057;49.984;8.404;2024-02-26T11:49:45;10.97;;;7.20;;
13969;SDS011;7057;49.984;8.404;2024-02-26T11:52:14;8.93;;;7.10;;
13969;SDS011;7057;49.984;8.404;2024-02-26T11:54:46;8.37;;;7.13;;
13969;SDS011;7057;49.984;8.404;2024-02-26T11:57:23;9.20;;;7.17;;
13969;SDS011;7057;49.984;8.404;2024-02-26T11:59:51;8.87;;;7.03;;
13969;SDS011;7057;49.984;8.404;2024-02-26T12:05:23;7.67;;;6.87;;
13969;SDS011;7057;49.984;8.404;2024-02-26T12:07:55;8.23;;;7.20;;
13969;SDS011;7057;49.984;8.404;2024-02-26T12:10:23;8.77;;;7.20;;
13969;SDS011;7057;49.984;8.404;2024-02-26T12:12:55;12.53;;;7.60;;
13969;SDS011;7057;49.984;8.404;2024-02-26T12:15:30;11.87;;;7.97;;
13969;SDS011;7057;49.984;8.404;2024-02-26T12:17:58;11.27;;;7.63;;
13969;SDS011;7057;49.984;8.404;2024-02-26T12:20:25;7.83;;;7.03;;
13969;SDS011;7057;49.984;8.404;2024-02-26T12:22:54;7.63;;;6.57;;
13969;SDS011;7057;49.984;8.404;2024-02-26T12:25:22;8.73;;;7.83;;
13969;SDS011;7057;49.984;8.404;2024-02-26T12:27:51;9.30;;;6.93;;
13969;SDS011;7057;49.984;8.404;2024-02-26T12:30:18;8.67;;;7.40;;
13969;SDS011;7057;49.984;8.404;2024-02-26T12:32:46;8.33;;;6.93;;
13969;SDS011;7057;49.984;8.404;2024-02-26T12:35:14;8.43;;;6.90;;
13969;SDS011;7057;49.984;8.404;2024-02-26T12:37:42;8.87;;;7.40;;
13969;SDS011;7057;49.984;8.404;2024-02-26T12:40:11;8.30;;;7.17;;
13969;SDS011;7057;49.984;8.404;2024-02-26T12:42:39;8.73;;;7.77;;
13969;SDS011;7057;49.984;8.404;2024-02-26T12:45:07;7.80;;;6.80;;
13969;SDS011;7057;49.984;8.404;2024-02-26T12:47:36;7.77;;;6.97;;
13969;SDS011;7057;49.984;8.404;2024-02-26T12:50:04;8.50;;;6.30;;
13969;SDS011;7057;49.984;8.404;2024-02-26T12:52:32;9.23;;;6.73;;
13969;SDS011;7057;49.984;8.404;2024-02-26T12:55:00;8.17;;;6.13;;
13969;SDS011;7057;49.984;8.404;2024-02-26T12:57:30;7.77;;;6.70;;
13969;SDS011;7057;49.984;8.404;2024-02-26T13:03:02;8.13;;;6.83;;
13969;SDS011;7057;49.984;8.404;2024-02-26T13:05:30;7.93;;;7.10;;
13969;SDS011;7057;49.984;8.404;2024-02-26T13:07:58;8.03;;;6.17;;
13969;SDS011;7057;49.984;8.404;2024-02-26T13:10:25;8.93;;;6.07;;
13969;SDS011;7057;49.984;8.404;2024-02-26T13:12:54;7.20;;;5.83;;
13969;SDS011;7057;49.984;8.404;2024-02-26T13:15:22;11.03;;;7.13;;
13969;SDS011;7057;49.984;8.404;2024-02-26T13:17:49;9.57;;;6.80;;
13969;SDS011;7057;49.984;8.404;2024-02-26T13:20:25;7.60;;;6.50;;
13969;SDS011;7057;49.984;8.404;2024-02-26T13:22:59;9.03;;;6.87;;
13969;SDS011;7057;49.984;8.404;2024-02-26T13:25:27;6.80;;;5.83;;
13969;SDS011;7057;49.984;8.404;2024-02-26T13:28:05;9.33;;;6.17;;
13969;SDS011;7057;49.984;8.404;2024-02-26T13:30:33;6.57;;;5.90;;
13969;SDS011;7057;49.984;8.404;2024-02-26T13:33:06;7.30;;;6.20;;
13969;SDS011;7057;49.984;8.404;2024-02-26T13:35:34;8.87;;;6.13;;
13969;SDS011;7057;49.984;8.404;2024-02-26T13:38:02;7.70;;;6.00;;
13969;SDS011;7057;49.984;8.404;2024-02-26T13:40:30;8.33;;;6.23;;
13969;SDS011;7057;49.984;8.404;2024-02-26T13:42:57;6.33;;;5.67;;
13969;SDS011;7057;49.984;8.404;2024-02-26T13:45:26;8.13;;;6.30;;
13969;SDS011;7057;49.984;8.404;2024-02-26T13:47:53;7.47;;;6.20;;
13969;SDS011;7057;49.984;8.404;2024-02-26T13:50:21;6.80;;;6.07;;
13969;SDS011;7057;49.984;8.404;2024-02-26T13:52:49;9.13;;;6.20;;
13969;SDS011;7057;49.984;8.404;2024-02-26T13:55:19;7.50;;;6.30;;
13969;SDS011;7057;49.984;8.404;2024-02-26T13:57:47;8.13;;;5.97;;
13969;SDS011;7057;49.984;8.404;2024-02-26T14:00:17;8.77;;;6.00;;
13969;SDS011;7057;49.984;8.404;2024-02-26T14:02:46;8.30;;;6.20;;
13969;SDS011;7057;49.984;8.404;2024-02-26T14:05:13;8.53;;;5.87;;
13969;SDS011;7057;49.984;8.404;2024-02-26T14:07:41;7.03;;;6.10;;
13969;SDS011;7057;49.984;8.404;2024-02-26T14:10:09;8.67;;;5.80;;
13969;SDS011;7057;49.984;8.404;2024-02-26T14:12:38;5.80;;;5.20;;
13969;SDS011;7057;49.984;8.404;2024-02-26T14:15:06;6.97;;;5.93;;
13969;SDS011;7057;49.984;8.404;2024-02-26T14:17:34;7.57;;;5.50;;
13969;SDS011;7057;49.984;8.404;2024-02-26T14:20:03;6.23;;;5.30;;
13969;SDS011;7057;49.984;8.404;2024-02-26T14:22:30;7.17;;;5.50;;
13969;SDS011;7057;49.984;8.404;2024-02-26T14:24:58;6.80;;;5.60;;
13969;SDS011;7057;49.984;8.404;2024-02-26T14:27:25;5.97;;;5.37;;
13969;SDS011;7057;49.984;8.404;2024-02-26T14:29:53;7.13;;;5.83;;
13969;SDS011;7057;49.984;8.404;2024-02-26T14:32:20;7.33;;;5.87;;
13969;SDS011;7057;49.984;8.404;2024-02-26T14:34:48;7.30;;;5.60;;
13969;SDS011;7057;49.984;8.404;2024-02-26T14:37:16;8.67;;;5.80;;
13969;SDS011;7057;49.984;8.404;2024-02-26T14:39:44;6.97;;;5.97;;
13969;SDS011;7057;49.984;8.404;2024-02-26T14:42:13;6.67;;;5.87;;
13969;SDS011;7057;49.984;8.404;2024-02-26T14:44:42;7.53;;;5.40;;
13969;SDS011;7057;49.984;8.404;2024-02-26T14:47:13;6.53;;;5.40;;
13969;SDS011;7057;49.984;8.404;2024-02-26T14:49:40;6.97;;;5.77;;
13969;SDS011;7057;49.984;8.404;2024-02-26T14:52:07;8.60;;;6.10;;
13969;SDS011;7057;49.984;8.404;2024-02-26T14:54:36;8.33;;;6.00;;
13969;SDS011;7057;49.984;8.404;2024-02-26T14:57:04;6.43;;;5.73;;
13969;SDS011;7057;49.984;8.404;2024-02-26T14:59:32;7.87;;;6.00;;
13969;SDS011;7057;49.984;8.404;2024-02-26T15:01:59;7.77;;;5.70;;
13969;SDS011;7057;49.984;8.404;2024-02-26T15:04:27;7.03;;;5.97;;
13969;SDS011;7057;49.984;8.404;2024-02-26T15:06:54;6.60;;;5.63;;
13969;SDS011;7057;49.984;8.404;2024-02-26T15:09:22;7.37;;;5.97;;